Time;durP1;ratioP1;P1;durP2;ratioP2;P2;SDS_P1;SDS_P2;PMS_P1;PMS_P2;Temp;Humidity;BMP_temperature;BMP_pressure;BME280_temperature;BME280_humidity;BME280_pressure;Samples;Min_cycle;Max_cycle;Signal;HPM_P1;HPM_P2
2021/07/02 00:00:27;;;;;;;8.20;6.50;;;20.20;87.10;;;;;;4862837;29;20213;-84
2021/07/02 00:03:16;;;;;;;8.00;6.57;;;20.20;87.20;;;;;;4866237;29;20606;-83
2021/07/02 00:05:46;;;;;;;8.73;6.20;;;20.20;87.20;;;;;;4860252;29;20216;-83
2021/07/02 00:08:16;;;;;;;8.23;6.63;;;20.20;86.90;;;;;;4854207;29;20317;-87
2021/07/02 00:10:44;;;;;;;8.40;6.03;;;20.20;87.00;;;;;;4852034;29;20324;-85
2021/07/02 00:13:13;;;;;;;6.67;6.00;;;20.20;86.80;;;;;;4853959;29;20715;-84
2021/07/02 00:15:42;;;;;;;6.27;5.67;;;20.20;87.00;;;;;;4853007;29;20221;-85
2021/07/02 00:18:11;;;;;;;6.77;5.90;;;20.20;86.70;;;;;;4852888;29;20683;-84
2021/07/02 00:20:40;;;;;;;7.93;5.67;;;20.20;86.50;;;;;;4864901;29;20666;-85
2021/07/02 00:23:10;;;;;;;7.20;5.60;;;20.20;86.20;;;;;;4860729;29;20204;-85
2021/07/02 00:25:39;;;;;;;7.67;6.33;;;20.20;86.30;;;;;;4870448;29;20432;-83
2021/07/02 00:28:08;;;;;;;6.40;5.80;;;20.10;86.30;;;;;;4859709;29;20271;-84
2021/07/02 00:30:37;;;;;;;6.60;6.00;;;20.20;86.40;;;;;;4858829;29;20264;-83
2021/07/02 00:33:06;;;;;;;7.53;5.87;;;20.20;86.50;;;;;;4871605;29;20244;-83
2021/07/02 00:35:34;;;;;;;7.63;6.17;;;20.10;86.50;;;;;;4861311;29;20236;-85
2021/07/02 00:38:03;;;;;;;6.87;5.80;;;20.10;86.60;;;;;;4872825;29;20233;-84
2021/07/02 00:40:33;;;;;;;6.37;5.77;;;20.10;86.60;;;;;;4874204;29;20208;-85
2021/07/02 00:43:03;;;;;;;6.17;5.40;;;20.00;87.10;;;;;;4869416;29;20208;-85
2021/07/02 00:45:32;;;;;;;6.70;5.23;;;19.90;86.80;;;;;;4866093;29;20215;-85
2021/07/02 00:48:01;;;;;;;5.90;5.30;;;19.80;87.00;;;;;;4863108;29;20216;-84
2021/07/02 00:50:30;;;;;;;8.80;5.37;;;19.70;88.00;;;;;;4858619;29;20209;-85
2021/07/02 00:52:59;;;;;;;5.93;5.23;;;19.60;88.00;;;;;;4862187;29;20243;-85
2021/07/02 00:55:28;;;;;;;6.97;5.57;;;19.50;87.90;;;;;;4862125;29;20272;-83
2021/07/02 00:57:58;;;;;;;6.33;5.47;;;19.30;88.30;;;;;;4859810;29;20235;-84
2021/07/02 01:00:28;;;;;;;5.27;4.87;;;19.20;88.90;;;;;;4863341;29;20208;-85
2021/07/02 01:02:56;;;;;;;6.57;5.20;;;19.10;89.10;;;;;;4866675;29;21050;-86
2021/07/02 01:05:28;;;;;;;6.50;5.63;;;18.90;89.50;;;;;;4874015;29;20447;-86
2021/07/02 01:07:57;;;;;;;6.47;5.83;;;18.80;90.10;;;;;;4869401;29;20227;-85
2021/07/02 01:10:27;;;;;;;6.20;5.60;;;18.60;90.30;;;;;;4855487;29;20201;-85
2021/07/02 01:12:57;;;;;;;6.43;5.80;;;18.50;90.80;;;;;;4855929;29;21055;-84
2021/07/02 01:15:28;;;;;;;6.80;5.80;;;18.40;90.90;;;;;;4857472;29;20208;-85
2021/07/02 01:17:57;;;;;;;7.07;6.37;;;18.30;91.20;;;;;;4866040;29;20203;-87
2021/07/02 01:20:26;;;;;;;7.10;6.50;;;18.20;91.40;;;;;;4864350;29;20215;-86
2021/07/02 01:22:57;;;;;;;7.10;6.40;;;18.10;91.80;;;;;;4858778;29;20213;-87
2021/07/02 01:25:29;;;;;;;7.30;6.40;;;18.00;92.30;;;;;;4874667;29;20275;-87
2021/07/02 01:27:59;;;;;;;7.10;6.40;;;18.00;92.80;;;;;;4874908;29;20217;-86
2021/07/02 01:30:31;;;;;;;8.00;6.50;;;17.90;93.40;;;;;;4876294;29;21374;-86
2021/07/02 01:33:00;;;;;;;6.93;6.30;;;17.80;93.90;;;;;;4882865;29;20240;-87
2021/07/02 01:35:28;;;;;;;8.17;7.37;;;17.70;94.40;;;;;;4879225;29;20248;-87
2021/07/02 01:37:58;;;;;;;7.27;6.20;;;17.70;95.40;;;;;;4877717;29;20218;-85
2021/07/02 01:40:28;;;;;;;7.50;6.70;;;17.60;95.30;;;;;;4880012;29;20213;-88
2021/07/02 01:42:56;;;;;;;6.73;6.03;;;17.60;96.00;;;;;;4881925;29;20266;-86
2021/07/02 01:45:26;;;;;;;7.03;6.43;;;17.50;96.50;;;;;;4873675;29;20205;-87
2021/07/02 01:47:56;;;;;;;7.83;7.03;;;17.50;97.40;;;;;;4877596;29;20215;-86
2021/07/02 01:50:26;;;;;;;7.27;6.53;;;17.50;98.70;;;;;;4878600;29;20193;-87
2021/07/02 01:52:55;;;;;;;7.13;6.10;;;17.50;99.00;;;;;;4871078;29;20267;-85
2021/07/02 01:55:26;;;;;;;7.27;6.67;;;17.50;99.50;;;;;;4856694;29;20217;-86
2021/07/02 01:57:54;;;;;;;7.90;6.77;;;17.50;99.80;;;;;;4854133;29;20322;-86
2021/07/02 02:00:24;;;;;;;7.60;6.80;;;17.40;99.90;;;;;;4852238;29;20217;-86
2021/07/02 02:02:53;;;;;;;7.67;6.97;;;17.40;99.90;;;;;;4861636;29;20212;-85
2021/07/02 02:05:22;;;;;;;8.23;6.90;;;17.40;99.90;;;;;;4860005;29;20219;-84
2021/07/02 02:07:50;;;;;;;8.03;7.23;;;17.40;99.90;;;;;;4849964;29;21099;-85
2021/07/02 02:10:19;;;;;;;7.80;6.70;;;17.40;99.90;;;;;;4864424;29;20209;-85
2021/07/02 02:12:50;;;;;;;8.33;6.73;;;17.40;99.90;;;;;;4855516;29;20774;-86
2021/07/02 02:15:19;;;;;;;8.37;7.23;;;17.40;99.90;;;;;;4860700;29;20259;-84
2021/07/02 02:17:47;;;;;;;8.80;7.90;;;17.40;99.90;;;;;;4851137;29;20212;-85
2021/07/02 02:20:17;;;;;;;8.30;7.50;;;17.40;99.90;;;;;;4859319;29;21085;-85
2021/07/02 02:22:45;;;;;;;7.73;7.03;;;17.40;99.90;;;;;;4857383;29;20276;-87
2021/07/02 02:25:14;;;;;;;7.50;6.70;;;17.40;99.90;;;;;;4855566;29;20204;-85
2021/07/02 02:27:46;;;;;;;7.37;6.07;;;17.30;99.90;;;;;;4860734;29;20216;-86
2021/07/02 02:30:17;;;;;;;7.43;6.50;;;17.30;99.90;;;;;;4858575;29;20307;-86
2021/07/02 02:32:46;;;;;;;6.30;5.80;;;17.30;99.90;;;;;;4858039;29;21122;-86
2021/07/02 02:35:14;;;;;;;5.90;5.40;;;17.20;99.90;;;;;;4852591;29;20212;-85
2021/07/02 02:37:43;;;;;;;5.97;5.43;;;17.20;99.90;;;;;;4852260;29;20211;-85
2021/07/02 02:40:12;;;;;;;6.20;5.70;;;17.20;99.90;;;;;;4861347;29;20904;-85
2021/07/02 02:42:41;;;;;;;6.40;5.80;;;17.20;99.90;;;;;;4860940;29;20205;-85
2021/07/02 02:45:11;;;;;;;7.50;6.70;;;17.10;99.90;;;;;;4864952;29;20605;-84
2021/07/02 02:47:41;;;;;;;6.63;6.03;;;17.10;99.90;;;;;;4859969;29;20554;-86
2021/07/02 02:50:11;;;;;;;8.07;5.57;;;17.10;99.90;;;;;;4876359;29;20224;-86
2021/07/02 02:52:39;;;;;;;6.60;6.00;;;17.00;99.90;;;;;;4863031;29;20663;-86
2021/07/02 02:55:10;;;;;;;7.93;6.37;;;17.00;99.90;;;;;;4875000;29;20211;-85
2021/07/02 02:57:39;;;;;;;5.83;5.23;;;17.00;99.90;;;;;;4878373;29;20291;-85
2021/07/02 03:00:10;;;;;;;6.53;5.50;;;17.10;99.90;;;;;;4873389;29;20665;-85
2021/07/02 03:02:44;;;;;;;6.70;6.10;;;17.00;99.90;;;;;;4860635;29;20544;-86
2021/07/02 03:05:30;;;;;;;6.13;5.63;;;17.00;99.90;;;;;;4860845;29;20264;-85
2021/07/02 03:07:59;;;;;;;7.03;6.23;;;17.00;99.90;;;;;;4856392;29;20473;-86
2021/07/02 03:10:30;;;;;;;6.53;5.90;;;17.00;99.90;;;;;;4873691;29;21621;-85
2021/07/02 03:12:58;;;;;;;7.10;6.40;;;17.00;99.90;;;;;;4866439;29;20372;-84
2021/07/02 03:15:31;;;;;;;7.67;6.40;;;17.00;99.90;;;;;;4859225;29;20224;-85
2021/07/02 03:18:01;;;;;;;7.47;6.67;;;17.00;99.90;;;;;;4857784;29;20669;-84
2021/07/02 03:20:30;;;;;;;8.40;7.20;;;17.00;99.90;;;;;;4869153;29;20208;-86
2021/07/02 03:22:59;;;;;;;7.43;6.73;;;17.00;99.90;;;;;;4869156;29;20419;-84
2021/07/02 03:25:28;;;;;;;7.20;6.50;;;16.90;99.90;;;;;;4869951;29;20498;-85
2021/07/02 03:27:57;;;;;;;9.67;6.73;;;17.00;99.90;;;;;;4862961;29;20209;-87
2021/07/02 03:30:26;;;;;;;7.57;6.80;;;16.90;99.90;;;;;;4861184;29;20231;-87
2021/07/02 03:32:54;;;;;;;10.13;7.10;;;16.90;99.90;;;;;;4859731;29;20915;-86
2021/07/02 03:35:25;;;;;;;7.60;6.90;;;16.90;99.90;;;;;;4876632;29;20207;-86
2021/07/02 03:37:54;;;;;;;7.00;6.37;;;16.90;99.90;;;;;;4885629;29;20236;-87
2021/07/02 03:40:22;;;;;;;7.20;6.47;;;16.90;99.90;;;;;;4885316;29;20264;-86
2021/07/02 03:42:51;;;;;;;6.80;6.20;;;16.90;99.90;;;;;;4872931;29;20683;-85
2021/07/02 03:45:20;;;;;;;7.17;6.47;;;16.90;99.90;;;;;;4861255;29;20561;-85
2021/07/02 03:47:49;;;;;;;8.67;7.20;;;16.90;99.90;;;;;;4852563;29;20295;-86
2021/07/02 03:50:18;;;;;;;9.00;7.47;;;16.90;99.90;;;;;;4854160;29;20225;-85
2021/07/02 03:52:48;;;;;;;7.43;6.73;;;17.00;99.90;;;;;;4861904;29;20209;-87
2021/07/02 03:55:16;;;;;;;8.10;7.30;;;17.00;99.90;;;;;;4873589;29;20298;-85
2021/07/02 03:57:45;;;;;;;8.13;7.23;;;17.00;99.90;;;;;;4878375;29;20232;-85
2021/07/02 04:00:15;;;;;;;8.97;7.93;;;17.00;99.90;;;;;;4880166;29;20203;-85
2021/07/02 04:02:47;;;;;;;9.70;8.23;;;17.00;99.90;;;;;;4882772;29;20200;-85
2021/07/02 04:05:16;;;;;;;8.77;7.87;;;17.00;99.90;;;;;;4875751;29;20196;-85
2021/07/02 04:07:45;;;;;;;9.73;8.67;;;16.90;99.90;;;;;;4856346;29;20276;-86
2021/07/02 04:10:15;;;;;;;10.33;8.73;;;16.90;99.90;;;;;;4863489;29;20311;-86
2021/07/02 04:12:44;;;;;;;9.97;8.97;;;17.00;99.90;;;;;;4860581;29;20216;-85
2021/07/02 04:15:14;;;;;;;10.07;9.07;;;17.10;99.90;;;;;;4855875;29;20250;-86
2021/07/02 04:17:43;;;;;;;9.83;8.33;;;17.20;99.90;;;;;;4856012;29;20200;-86
2021/07/02 04:20:14;;;;;;;10.77;9.67;;;17.30;99.90;;;;;;4873227;29;20935;-87
2021/07/02 04:22:42;;;;;;;9.80;8.80;;;17.40;99.90;;;;;;4878783;29;20216;-86
2021/07/02 04:25:12;;;;;;;9.57;8.57;;;17.50;99.90;;;;;;4865929;29;20973;-86
2021/07/02 04:27:43;;;;;;;10.73;8.93;;;17.50;99.90;;;;;;4872996;29;20201;-86
2021/07/02 04:30:13;;;;;;;9.60;8.70;;;17.60;99.90;;;;;;4869816;29;20265;-85
2021/07/02 04:32:45;;;;;;;10.47;9.40;;;17.70;99.90;;;;;;4868600;29;20220;-84
2021/07/02 04:35:14;;;;;;;10.33;8.73;;;17.70;99.90;;;;;;4868438;29;20535;-84
2021/07/02 04:37:43;;;;;;;9.17;8.13;;;17.80;99.90;;;;;;4863436;29;20291;-85
2021/07/02 04:40:13;;;;;;;10.00;9.00;;;17.80;99.90;;;;;;4856596;29;20208;-84
2021/07/02 04:42:44;;;;;;;9.47;8.50;;;17.80;99.90;;;;;;4856586;29;20202;-87
2021/07/02 04:45:15;;;;;;;9.63;8.73;;;17.70;99.90;;;;;;4862058;29;20213;-87
2021/07/02 04:47:44;;;;;;;9.53;8.63;;;17.80;99.90;;;;;;4856943;29;20208;-87
2021/07/02 04:50:13;;;;;;;9.97;9.00;;;17.90;99.90;;;;;;4879071;29;20470;-87
2021/07/02 04:52:43;;;;;;;9.90;8.90;;;17.80;99.90;;;;;;4878647;29;20215;-85
2021/07/02 04:55:12;;;;;;;10.40;9.33;;;17.80;99.90;;;;;;4880881;29;20240;-87
2021/07/02 04:57:45;;;;;;;10.37;9.27;;;17.80;99.90;;;;;;4879480;29;20188;-88
2021/07/02 05:00:16;;;;;;;10.60;9.50;;;17.80;99.90;;;;;;4881198;29;20204;-87
2021/07/02 05:02:45;;;;;;;11.03;9.40;;;17.90;99.90;;;;;;4879688;29;20207;-84
2021/07/02 05:05:13;;;;;;;9.97;8.97;;;18.00;99.90;;;;;;4877307;29;20212;-87
2021/07/02 05:07:43;;;;;;;10.60;9.23;;;18.00;99.90;;;;;;4880707;29;20233;-87
2021/07/02 05:10:12;;;;;;;10.00;9.00;;;18.10;99.90;;;;;;4875764;29;20232;-87
2021/07/02 05:12:41;;;;;;;10.27;9.23;;;18.20;99.90;;;;;;4857405;29;20201;-86
2021/07/02 05:15:12;;;;;;;9.40;8.50;;;18.20;99.90;;;;;;4859120;29;20221;-86
2021/07/02 05:17:41;;;;;;;9.63;8.67;;;18.20;99.90;;;;;;4884270;29;20203;-87
2021/07/02 05:20:10;;;;;;;9.53;8.57;;;18.20;99.70;;;;;;4868026;29;20216;-86
2021/07/02 05:22:40;;;;;;;10.57;9.57;;;18.30;98.10;;;;;;4879881;29;20198;-86
2021/07/02 05:25:10;;;;;;;11.13;8.93;;;18.30;97.30;;;;;;4880139;29;20215;-86
2021/07/02 05:27:39;;;;;;;11.43;10.47;;;18.30;97.00;;;;;;4868361;29;20212;-87
2021/07/02 05:30:12;;;;;;;10.53;9.53;;;18.30;97.10;;;;;;4877025;29;20208;-84
2021/07/02 05:32:44;;;;;;;11.17;10.07;;;18.30;96.50;;;;;;4875201;29;20241;-86
2021/07/02 05:35:13;;;;;;;11.87;10.77;;;18.30;97.70;;;;;;4870675;29;20243;-89
2021/07/02 05:37:44;;;;;;;11.67;10.67;;;18.30;97.60;;;;;;4867951;29;20272;-86
2021/07/02 05:40:20;;;;;;;12.87;11.67;;;18.40;97.20;;;;;;4879757;29;20201;-85
2021/07/02 05:42:49;;;;;;;12.77;11.57;;;18.50;96.10;;;;;;4883646;29;20382;-85
2021/07/02 05:45:20;;;;;;;13.33;12.07;;;18.40;96.20;;;;;;4874348;29;20205;-86
2021/07/02 05:47:50;;;;;;;12.57;11.43;;;18.40;96.50;;;;;;4862158;29;20212;-86
2021/07/02 05:50:21;;;;;;;12.70;11.53;;;18.40;95.60;;;;;;4868092;29;20212;-86
2021/07/02 05:52:51;;;;;;;13.63;12.43;;;18.40;96.30;;;;;;4880342;29;20220;-86
2021/07/02 05:55:22;;;;;;;13.23;11.50;;;18.40;96.70;;;;;;4874266;29;20967;-85
2021/07/02 05:57:54;;;;;;;14.00;12.60;;;18.50;95.80;;;;;;4866086;29;20208;-85
2021/07/02 06:00:25;;;;;;;12.43;11.23;;;18.60;96.40;;;;;;4874071;29;20208;-86
2021/07/02 06:02:54;;;;;;;13.90;12.50;;;18.70;95.10;;;;;;4869887;29;20920;-86
2021/07/02 06:05:24;;;;;;;13.47;12.07;;;18.80;94.70;;;;;;4865900;29;20219;-85
2021/07/02 06:07:55;;;;;;;13.73;12.43;;;18.90;94.00;;;;;;4864912;29;20216;-86
2021/07/02 06:10:26;;;;;;;14.30;12.83;;;18.90;94.50;;;;;;4873302;29;20276;-86
2021/07/02 06:12:56;;;;;;;13.67;12.30;;;18.90;93.60;;;;;;4877880;29;20441;-84
2021/07/02 06:15:26;;;;;;;13.53;12.23;;;18.90;93.60;;;;;;4870327;29;20319;-88
2021/07/02 06:17:57;;;;;;;14.03;12.73;;;18.90;93.30;;;;;;4858303;29;20225;-84
2021/07/02 06:20:27;;;;;;;13.47;12.07;;;18.90;94.40;;;;;;4856879;29;20211;-86
2021/07/02 06:22:59;;;;;;;13.50;12.20;;;19.00;93.90;;;;;;4865140;29;20217;-87
2021/07/02 06:25:29;;;;;;;14.17;12.77;;;19.00;92.80;;;;;;4879138;29;20207;-87
2021/07/02 06:27:58;;;;;;;14.57;13.13;;;19.00;93.00;;;;;;4877619;29;20212;-85
2021/07/02 06:30:28;;;;;;;14.00;12.70;;;18.90;93.30;;;;;;4867829;29;20189;-87
2021/07/02 06:32:58;;;;;;;17.17;14.57;;;18.80;93.70;;;;;;4869720;29;20790;-87
2021/07/02 06:35:28;;;;;;;15.50;14.00;;;18.80;93.10;;;;;;4873887;29;20247;-89
2021/07/02 06:38:00;;;;;;;16.17;14.57;;;18.80;93.20;;;;;;4871548;29;20502;-85
2021/07/02 06:40:31;;;;;;;16.43;14.77;;;18.80;93.20;;;;;;4867265;29;20236;-86
2021/07/02 06:43:00;;;;;;;17.13;15.43;;;18.80;93.20;;;;;;4861166;29;20208;-88
2021/07/02 06:45:32;;;;;;;18.23;16.37;;;18.90;94.00;;;;;;4852819;29;20212;-85
2021/07/02 06:48:05;;;;;;;18.00;16.13;;;19.00;92.90;;;;;;4859350;29;20209;-87
2021/07/02 06:50:35;;;;;;;18.23;16.30;;;19.10;93.50;;;;;;4860849;29;20235;-85
2021/07/02 06:53:06;;;;;;;19.20;17.23;;;19.00;93.20;;;;;;4867646;29;20225;-87
2021/07/02 06:55:36;;;;;;;18.93;16.93;;;19.20;93.20;;;;;;4869613;29;20488;-83
2021/07/02 06:58:05;;;;;;;21.93;18.83;;;19.30;93.40;;;;;;4868995;29;20225;-81
2021/07/02 07:00:35;;;;;;;19.73;17.87;;;19.30;93.20;;;;;;4855683;29;20402;-83
2021/07/02 07:03:04;;;;;;;21.43;19.33;;;19.50;91.90;;;;;;4855982;29;20220;-88
2021/07/02 07:05:39;;;;;;;21.63;19.43;;;19.50;91.30;;;;;;4861638;29;20231;-85
2021/07/02 07:08:09;;;;;;;21.13;19.03;;;19.60;92.30;;;;;;4861841;29;20200;-87
2021/07/02 07:10:39;;;;;;;20.83;18.27;;;19.80;92.10;;;;;;4860139;29;20290;-85
2021/07/02 07:13:07;;;;;;;20.43;18.30;;;19.90;90.40;;;;;;4856167;29;20205;-85
2021/07/02 07:15:41;;;;;;;20.80;18.57;;;20.10;91.40;;;;;;4861956;29;20440;-86
2021/07/02 07:18:10;;;;;;;20.33;18.23;;;20.40;90.40;;;;;;4862954;29;20200;-86
2021/07/02 07:20:39;;;;;;;21.07;18.97;;;20.60;89.90;;;;;;4856991;29;20212;-86
2021/07/02 07:23:09;;;;;;;22.13;18.87;;;20.80;89.40;;;;;;4856596;29;21425;-84
2021/07/02 07:25:38;;;;;;;23.03;20.10;;;20.80;89.30;;;;;;4852777;29;20208;-84
2021/07/02 07:28:07;;;;;;;24.48;19.98;;;20.70;88.30;;;;;;4862121;29;20256;-86
2021/07/02 07:30:36;;;;;;;23.13;20.40;;;20.70;89.60;;;;;;4851933;29;20209;-86
2021/07/02 07:33:06;;;;;;;26.20;21.07;;;20.60;88.60;;;;;;4863511;29;20213;-82
2021/07/02 07:35:38;;;;;;;23.90;21.33;;;20.40;88.70;;;;;;4869693;29;20232;-83
2021/07/02 07:38:07;;;;;;;26.70;22.23;;;20.30;90.30;;;;;;4859215;29;20382;-88
2021/07/02 07:40:37;;;;;;;27.77;22.53;;;20.30;89.30;;;;;;4846771;29;20393;-88
2021/07/02 07:43:08;;;;;;;27.13;22.10;;;20.20;89.50;;;;;;4855222;29;20307;-85
2021/07/02 07:45:37;;;;;;;26.70;22.80;;;20.10;90.00;;;;;;4872918;29;20189;-87
2021/07/02 07:48:09;;;;;;;27.67;24.03;;;20.00;90.40;;;;;;4863757;29;20471;-87
2021/07/02 07:50:47;;;;;;;28.27;23.90;;;20.00;90.00;;;;;;4847144;29;20316;-87
2021/07/02 07:53:17;;;;;;;31.03;24.33;;;19.90;89.80;;;;;;4851400;29;20888;-87
2021/07/02 07:55:48;;;;;;;30.13;23.07;;;19.80;90.90;;;;;;4846906;29;20232;-87
2021/07/02 07:58:20;;;;;;;28.97;23.20;;;19.70;91.00;;;;;;4847357;29;20243;-86
2021/07/02 08:00:51;;;;;;;27.43;23.13;;;19.60;91.00;;;;;;4845533;29;20213;-85
2021/07/02 08:03:22;;;;;;;28.03;22.40;;;19.60;91.00;;;;;;4854673;29;20209;-86
2021/07/02 08:05:53;;;;;;;26.20;21.83;;;19.60;91.00;;;;;;4862350;29;20212;-86
2021/07/02 08:08:22;;;;;;;26.73;22.23;;;19.70;90.40;;;;;;4873031;29;20204;-84
2021/07/02 08:10:51;;;;;;;26.30;21.43;;;19.50;91.00;;;;;;4865457;29;20431;-87
2021/07/02 08:13:20;;;;;;;27.57;21.43;;;19.60;90.90;;;;;;4857270;29;20690;-85
2021/07/02 08:15:52;;;;;;;26.30;20.73;;;19.60;90.60;;;;;;4853558;29;20220;-85
2021/07/02 08:18:22;;;;;;;24.57;20.07;;;19.70;91.20;;;;;;4865731;29;20185;-85
2021/07/02 08:20:51;;;;;;;23.43;18.97;;;19.70;91.00;;;;;;4869162;29;20193;-86
2021/07/02 08:23:22;;;;;;;24.30;19.73;;;20.10;90.90;;;;;;4864142;29;20634;-88
2021/07/02 08:25:52;;;;;;;21.67;19.00;;;20.50;90.60;;;;;;4861343;29;20807;-86
2021/07/02 08:31:08;;;;;;;20.57;17.37;;;20.80;89.70;;;;;;4870115;29;20598;-85
2021/07/02 08:33:38;;;;;;;22.80;18.60;;;20.70;88.90;;;;;;4856521;29;20234;-85
2021/07/02 08:36:08;;;;;;;20.40;17.13;;;20.70;89.30;;;;;;4863260;29;20470;-85
2021/07/02 08:38:38;;;;;;;24.10;17.80;;;20.80;89.90;;;;;;4863124;29;20562;-86
2021/07/02 08:41:11;;;;;;;22.93;18.30;;;20.90;88.50;;;;;;4860943;29;20249;-88
2021/07/02 08:43:41;;;;;;;21.73;17.93;;;20.80;88.00;;;;;;4857953;29;20204;-85
2021/07/02 08:46:12;;;;;;;21.80;17.90;;;20.70;88.00;;;;;;4861622;29;20201;-88
2021/07/02 08:48:46;;;;;;;22.03;16.90;;;20.40;88.90;;;;;;4868047;29;20200;-87
2021/07/02 08:51:15;;;;;;;21.50;17.47;;;20.30;89.00;;;;;;4859844;29;20278;-83
2021/07/02 08:53:44;;;;;;;21.83;17.07;;;20.10;89.90;;;;;;4874831;29;20317;-85
2021/07/02 08:56:13;;;;;;;19.93;16.77;;;20.00;90.60;;;;;;4855987;29;20545;-84
2021/07/02 08:58:44;;;;;;;20.73;17.43;;;20.10;90.40;;;;;;4867166;29;20416;-84
2021/07/02 09:01:35;;;;;;;18.33;16.27;;;20.10;89.50;;;;;;4860515;29;20216;-83
2021/07/02 09:04:23;;;;;;;19.23;16.90;;;20.20;90.20;;;;;;4862305;29;20230;-85
2021/07/02 09:07:07;;;;;;;18.20;16.07;;;20.40;90.10;;;;;;4857396;29;20266;-82
2021/07/02 09:09:51;;;;;;;19.57;16.70;;;20.50;89.00;;;;;;4859791;29;20232;-85
2021/07/02 09:12:21;;;;;;;20.70;15.57;;;20.60;88.10;;;;;;4854644;29;20212;-84
2021/07/02 09:15:04;;;;;;;17.23;15.27;;;20.70;88.50;;;;;;4852916;29;20224;-83
2021/07/02 09:17:36;;;;;;;17.33;15.37;;;20.90;88.00;;;;;;4855118;29;20415;-86
2021/07/02 09:20:10;;;;;;;18.40;15.07;;;21.00;88.30;;;;;;4847773;29;20216;-87
2021/07/02 09:22:49;;;;;;;20.20;14.82;;;21.00;87.40;;;;;;4850722;29;20799;-87
2021/07/02 09:25:24;;;;;;;16.92;13.93;;;20.90;87.90;;;;;;4852305;29;20215;-89
2021/07/02 09:27:57;;;;;;;16.57;14.80;;;21.10;88.70;;;;;;4849765;29;20370;-84
2021/07/02 09:30:29;;;;;;;16.27;14.48;;;21.20;87.50;;;;;;4848424;29;20296;-85
2021/07/02 09:33:01;;;;;;;17.73;14.52;;;21.20;87.60;;;;;;4846535;29;20220;-82
2021/07/02 09:35:35;;;;;;;16.88;14.05;;;21.20;87.30;;;;;;4841502;29;21359;-83
2021/07/02 09:38:06;;;;;;;16.55;14.77;;;21.20;86.00;;;;;;4841310;29;20844;-86
2021/07/02 09:40:37;;;;;;;15.52;13.35;;;21.30;86.40;;;;;;4845654;29;20235;-85
2021/07/02 09:43:09;;;;;;;15.50;13.40;;;21.30;86.10;;;;;;4855226;29;20212;-84
2021/07/02 09:45:45;;;;;;;15.05;13.40;;;21.40;86.10;;;;;;4847278;29;20381;-84
2021/07/02 09:48:17;;;;;;;15.02;13.43;;;21.50;85.90;;;;;;4861614;29;20247;-85
2021/07/02 09:50:50;;;;;;;18.55;12.82;;;21.60;86.50;;;;;;4870327;29;20188;-84
2021/07/02 09:53:21;;;;;;;16.80;13.10;;;21.70;86.30;;;;;;4865343;29;20208;-85
2021/07/02 09:55:52;;;;;;;14.00;12.50;;;21.80;86.30;;;;;;4855374;29;20583;-84
2021/07/02 09:58:23;;;;;;;16.77;13.55;;;21.70;85.50;;;;;;4842217;29;20294;-85
2021/07/02 10:00:53;;;;;;;15.00;13.20;;;21.70;85.50;;;;;;4853679;29;20222;-83
2021/07/02 10:03:24;;;;;;;15.35;13.75;;;21.70;85.50;;;;;;4868279;29;20271;-86
2021/07/02 10:05:57;;;;;;;15.73;14.02;;;21.60;85.40;;;;;;4866602;29;20212;-82
2021/07/02 10:08:28;;;;;;;17.77;14.77;;;21.40;85.50;;;;;;4855708;29;20209;-84
2021/07/02 10:10:59;;;;;;;18.75;15.23;;;21.40;86.10;;;;;;4859435;29;20209;-81
2021/07/02 10:13:30;;;;;;;18.45;15.50;;;21.60;85.60;;;;;;4858456;29;20228;-84
2021/07/02 10:16:01;;;;;;;19.45;15.50;;;21.60;85.40;;;;;;4849451;29;20208;-88
2021/07/02 10:18:31;;;;;;;19.48;15.75;;;21.40;85.70;;;;;;4848521;29;20237;-84
2021/07/02 10:21:03;;;;;;;18.40;15.45;;;21.40;86.20;;;;;;4848473;29;20311;-83
2021/07/02 10:23:34;;;;;;;18.90;16.17;;;21.60;86.20;;;;;;4845430;29;20219;-86
2021/07/02 10:26:05;;;;;;;18.73;15.65;;;21.70;85.90;;;;;;4855001;29;20213;-85
2021/07/02 10:28:36;;;;;;;19.30;16.30;;;21.80;85.50;;;;;;4850472;29;20192;-83
2021/07/02 10:31:07;;;;;;;17.60;15.25;;;21.90;85.60;;;;;;4876952;29;20269;-83
2021/07/02 10:33:42;;;;;;;20.55;16.58;;;22.10;85.90;;;;;;4851818;29;20224;-85
2021/07/02 10:36:14;;;;;;;18.08;15.88;;;22.10;85.20;;;;;;4857231;29;20204;-85
2021/07/02 10:38:46;;;;;;;19.98;16.60;;;22.00;85.60;;;;;;4860954;29;20773;-84
2021/07/02 10:41:17;;;;;;;20.05;16.45;;;22.00;85.40;;;;;;4846592;29;20409;-84
2021/07/02 10:44:08;;;;;;;19.80;17.17;;;21.90;85.90;;;;;;4848024;29;20212;-83
2021/07/02 10:46:38;;;;;;;22.70;17.85;;;22.00;85.90;;;;;;4849935;29;20903;-82
2021/07/02 10:49:08;;;;;;;27.23;21.27;;;22.30;85.40;;;;;;4851286;29;21139;-82
2021/07/02 10:51:52;;;;;;;22.83;18.40;;;22.60;85.80;;;;;;4845492;29;20486;-83
2021/07/02 10:54:35;;;;;;;19.90;17.38;;;22.80;85.10;;;;;;4848280;29;20212;-84
2021/07/02 10:57:15;;;;;;;20.52;18.33;;;23.00;85.20;;;;;;4860572;29;20377;-85
2021/07/02 11:00:07;;;;;;;21.48;18.17;;;23.20;84.80;;;;;;4852289;29;20277;-86
2021/07/02 11:02:36;;;;;;;22.08;19.60;;;23.50;84.50;;;;;;4854981;29;20212;-86
2021/07/02 11:05:32;;;;;;;22.13;19.65;;;23.40;83.90;;;;;;4858531;29;20217;-85
2021/07/02 11:08:03;;;;;;;23.75;20.40;;;23.30;84.20;;;;;;4851816;29;20555;-82
2021/07/02 11:10:57;;;;;;;24.33;21.23;;;23.20;84.30;;;;;;4855071;29;20212;-85
2021/07/02 11:13:26;;;;;;;24.25;19.35;;;23.00;84.00;;;;;;4864098;29;20213;-84
2021/07/02 11:16:08;;;;;;;20.73;17.88;;;23.00;84.40;;;;;;4865805;29;20189;-85
2021/07/02 11:18:41;;;;;;;23.27;17.40;;;22.90;84.40;;;;;;4860808;29;20320;-85
2021/07/02 11:21:19;;;;;;;20.45;17.92;;;22.90;84.80;;;;;;4847554;29;20498;-85
2021/07/02 11:23:49;;;;;;;18.65;16.65;;;22.80;84.60;;;;;;4843234;29;20204;-85
2021/07/02 11:26:43;;;;;;;19.27;16.65;;;22.80;84.40;;;;;;4854487;29;20273;-83
2021/07/02 11:29:12;;;;;;;19.48;17.10;;;22.70;84.50;;;;;;4873327;29;20516;-85
2021/07/02 11:31:43;;;;;;;19.63;16.83;;;22.80;84.60;;;;;;4867769;29;20211;-85
2021/07/02 11:34:15;;;;;;;18.10;16.15;;;22.80;84.60;;;;;;4860467;29;20212;-85
2021/07/02 11:37:10;;;;;;;19.63;16.92;;;22.70;84.80;;;;;;4859699;29;20204;-86
2021/07/02 11:39:45;;;;;;;18.20;16.17;;;22.50;84.90;;;;;;4846006;29;20204;-83
2021/07/02 11:42:18;;;;;;;18.35;16.27;;;22.40;84.80;;;;;;4842273;29;20406;-83
2021/07/02 11:44:49;;;;;;;18.90;16.88;;;22.10;84.90;;;;;;4850480;29;20227;-85
2021/07/02 11:47:18;;;;;;;20.05;17.15;;;21.90;85.60;;;;;;4848476;29;20200;-83
2021/07/02 11:49:51;;;;;;;20.83;17.40;;;21.60;85.70;;;;;;4843727;29;20219;-85
2021/07/02 11:52:21;;;;;;;20.42;17.38;;;21.30;85.90;;;;;;4840131;29;20358;-85
2021/07/02 11:54:52;;;;;;;20.52;18.08;;;21.20;86.90;;;;;;4843149;29;20204;-86
2021/07/02 11:57:25;;;;;;;21.50;19.20;;;21.10;87.00;;;;;;4843866;29;20591;-84
2021/07/02 12:00:05;;;;;;;23.33;19.03;;;21.10;86.90;;;;;;4843844;29;20235;-86
2021/07/02 12:02:35;;;;;;;25.07;20.43;;;20.90;87.00;;;;;;4854156;29;20216;-85
2021/07/02 12:05:09;;;;;;;25.80;22.53;;;20.90;87.10;;;;;;4864828;29;20241;-84
2021/07/02 12:07:47;;;;;;;29.03;24.20;;;20.70;87.60;;;;;;4856398;29;20220;-86
2021/07/02 12:10:18;;;;;;;25.57;21.30;;;20.60;87.50;;;;;;4861363;29;20213;-84
2021/07/02 12:12:47;;;;;;;24.57;20.90;;;20.60;87.70;;;;;;4850282;29;20214;-85
2021/07/02 12:15:25;;;;;;;23.57;20.97;;;20.50;87.50;;;;;;4844222;29;20796;-83
2021/07/02 12:18:02;;;;;;;25.90;20.07;;;20.50;88.00;;;;;;4842592;29;20232;-83
2021/07/02 12:20:31;;;;;;;24.17;20.33;;;20.50;87.90;;;;;;4855537;29;20224;-85
2021/07/02 12:23:05;;;;;;;27.87;20.60;;;20.60;87.70;;;;;;4856312;29;20422;-85
2021/07/02 12:29:17;;;;;;;22.33;19.83;;;20.60;87.90;;;;;;5155005;27;20578;-84
2021/07/02 12:31:48;;;;;;;24.03;19.73;;;20.90;87.50;;;;;;5144141;27;20229;-86
2021/07/02 12:34:20;;;;;;;21.43;18.43;;;21.10;87.50;;;;;;5162650;27;20209;-85
2021/07/02 12:36:57;;;;;;;19.47;17.40;;;21.30;86.80;;;;;;5152222;27;20194;-84
2021/07/02 12:39:31;;;;;;;19.13;16.77;;;21.30;86.40;;;;;;5150671;27;20300;-85
2021/07/02 12:42:02;;;;;;;19.87;17.60;;;21.20;86.50;;;;;;5157057;27;20205;-82
2021/07/02 12:44:33;;;;;;;21.07;18.47;;;21.00;86.80;;;;;;5152511;27;20205;-82
2021/07/02 12:47:06;;;;;;;21.87;17.83;;;20.80;87.10;;;;;;5148628;27;20224;-82
2021/07/02 12:49:42;;;;;;;21.53;18.07;;;20.90;87.60;;;;;;5150007;27;20257;-82
2021/07/02 12:55:07;;;;;;;19.73;17.40;;;20.90;87.70;;;;;;5169629;27;20221;-84
2021/07/02 12:57:38;;;;;;;20.03;17.80;;;20.80;88.20;;;;;;5160198;27;20659;-84
2021/07/02 13:00:10;;;;;;;20.47;17.13;;;20.60;90.70;;;;;;5152277;27;20625;-84
2021/07/02 13:02:40;;;;;;;21.93;18.73;;;20.40;90.60;;;;;;5165796;27;20210;-85
2021/07/02 13:05:27;;;;;;;24.40;18.83;;;20.40;91.90;;;;;;5157173;27;20197;-84